createdAt,value
2023-04-29T00:02:16.383Z,12.50
2023-04-29T00:05:20.097Z,12.93
2023-04-29T00:08:23.853Z,14.53
2023-04-29T00:11:27.264Z,11.07
2023-04-29T00:14:30.649Z,13.68
2023-04-29T00:17:34.056Z,14.90
2023-04-29T00:20:38.964Z,17.45
2023-04-29T00:23:42.775Z,19.77
2023-04-29T00:26:46.685Z,12.73
2023-04-29T00:29:50.413Z,15.13
2023-04-29T00:32:53.966Z,18.10
2023-04-29T00:35:57.359Z,20.33
2023-04-29T00:39:01.743Z,14.03
2023-04-29T00:42:05.303Z,15.90
2023-04-29T00:45:11.569Z,14.55
2023-04-29T00:48:15.990Z,15.82
2023-04-29T00:51:19.676Z,15.18
2023-04-29T00:54:23.290Z,16.37
2023-04-29T00:57:30.294Z,17.63
2023-04-29T01:00:34.068Z,14.73
2023-04-29T01:03:38.508Z,17.80
2023-04-29T01:06:57.483Z,14.77
2023-04-29T01:10:22.722Z,14.87
2023-04-29T01:13:52.374Z,19.47
2023-04-29T01:17:02.766Z,14.80
2023-04-29T01:20:06.972Z,15.70
2023-04-29T01:23:11.071Z,16.30
2023-04-29T01:26:15.848Z,14.50
2023-04-29T01:29:46.024Z,17.03
2023-04-29T01:33:00.989Z,15.20
2023-04-29T01:36:27.887Z,15.52
2023-04-29T01:40:05.541Z,16.42
2023-04-29T01:43:14.660Z,14.13
2023-04-29T01:46:21.876Z,20.23
2023-04-29T01:49:27.840Z,15.38
2023-04-29T01:52:31.995Z,16.60
2023-04-29T01:55:35.636Z,15.88
2023-04-29T01:58:51.259Z,21.13
2023-04-29T02:02:21.408Z,14.77
2023-04-29T02:05:34.394Z,16.65
2023-04-29T02:08:38.626Z,15.73
2023-04-29T02:11:42.996Z,17.35
2023-04-29T02:14:48.011Z,14.87
2023-04-29T02:17:51.449Z,21.37
2023-04-29T02:21:02.189Z,16.80
2023-04-29T02:24:06.348Z,17.88
2023-04-29T02:27:10.162Z,15.20
2023-04-29T02:30:13.655Z,18.57
2023-04-29T02:33:18.552Z,15.90
2023-04-29T02:36:21.948Z,18.23
2023-04-29T02:39:27.810Z,18.55
2023-04-29T02:42:32.343Z,22.65
2023-04-29T02:45:39.044Z,23.30
2023-04-29T02:48:42.787Z,17.93
2023-04-29T02:51:46.246Z,20.85
2023-04-29T02:54:49.568Z,19.30
2023-04-29T02:57:53.195Z,21.00
2023-04-29T03:00:56.787Z,19.20
2023-04-29T03:04:00.874Z,19.50
2023-04-29T03:07:04.986Z,18.55
2023-04-29T03:10:09.223Z,22.67
2023-04-29T03:13:14.170Z,18.40
2023-04-29T03:16:17.911Z,21.47
2023-04-29T03:19:21.343Z,20.20
2023-04-29T03:22:26.967Z,22.65
2023-04-29T03:25:30.598Z,19.00
2023-04-29T03:28:34.284Z,19.20
2023-04-29T03:31:37.566Z,25.00
2023-04-29T03:34:41.474Z,17.57
2023-04-29T03:38:11.594Z,18.27
2023-04-29T03:41:15.692Z,22.63
2023-04-29T03:44:19.091Z,18.90
2023-04-29T03:47:22.519Z,21.17
2023-04-29T03:50:26.228Z,22.03
2023-04-29T03:53:30.630Z,21.70
2023-04-29T03:56:34.012Z,21.45
2023-04-29T03:59:37.827Z,22.15
2023-04-29T04:02:41.936Z,21.37
2023-04-29T04:05:46.814Z,26.73
2023-04-29T04:08:52.153Z,23.77
2023-04-29T04:12:01.095Z,19.98
2023-04-29T04:15:05.280Z,20.45
2023-04-29T04:18:09.071Z,20.40
2023-04-29T04:21:19.033Z,16.80
2023-04-29T04:24:29.873Z,19.60
2023-04-29T04:27:33.351Z,18.17
2023-04-29T04:30:40.229Z,17.48
2023-04-29T04:33:43.642Z,18.93
2023-04-29T04:36:47.183Z,16.87
2023-04-29T04:39:50.839Z,15.68
2023-04-29T04:42:55.316Z,19.83
2023-04-29T04:45:59.595Z,18.50
2023-04-29T04:49:03.356Z,15.17
2023-04-29T04:52:09.509Z,16.30
2023-04-29T04:55:15.018Z,16.92
2023-04-29T04:58:21.319Z,14.57
2023-04-29T05:01:25.073Z,14.60
2023-04-29T05:04:28.920Z,16.30
2023-04-29T05:07:33.284Z,13.83
2023-04-29T05:10:40.366Z,14.02
2023-04-29T05:13:44.952Z,16.45
2023-04-29T05:16:48.576Z,14.43
2023-04-29T05:19:52.036Z,14.47
2023-04-29T05:22:55.696Z,14.07
2023-04-29T05:26:00.363Z,13.95
2023-04-29T05:29:03.900Z,15.52
2023-04-29T05:32:14.392Z,15.57
2023-04-29T05:35:18.006Z,14.37
2023-04-29T05:38:21.864Z,16.80
2023-04-29T05:41:34.147Z,14.88
2023-04-29T05:44:43.238Z,15.65
2023-04-29T05:47:46.790Z,13.88
2023-04-29T05:50:50.529Z,15.50
2023-04-29T05:53:54.929Z,13.97
2023-04-29T05:56:58.361Z,15.50
2023-04-29T06:00:04.272Z,15.00
2023-04-29T06:03:17.382Z,12.38
2023-04-29T06:06:21.353Z,14.03
2023-04-29T06:09:44.170Z,14.30
2023-04-29T06:12:50.965Z,14.77
2023-04-29T06:15:54.654Z,13.68
2023-04-29T06:18:58.545Z,13.07
2023-04-29T06:22:01.989Z,14.07
2023-04-29T06:25:08.395Z,13.67
2023-04-29T06:28:23.546Z,13.32
2023-04-29T06:31:27.946Z,10.60
2023-04-29T06:34:36.331Z,12.25
2023-04-29T06:38:11.987Z,12.60
2023-04-29T06:41:51.718Z,11.17
2023-04-29T06:45:33.766Z,12.85
2023-04-29T06:48:46.403Z,12.52
2023-04-29T06:51:50.036Z,13.23
2023-04-29T06:54:53.624Z,13.67
2023-04-29T06:57:57.742Z,15.90
2023-04-29T07:01:19.235Z,12.65
2023-04-29T07:04:23.138Z,11.30
2023-04-29T07:07:27.822Z,10.13
2023-04-29T07:10:31.303Z,10.77
2023-04-29T07:13:34.801Z,12.23
2023-04-29T07:16:38.283Z,13.43
2023-04-29T07:19:46.648Z,11.93
2023-04-29T07:22:50.092Z,13.68
2023-04-29T07:25:53.765Z,12.53
2023-04-29T07:28:58.000Z,10.87
2023-04-29T07:32:01.621Z,12.73
2023-04-29T07:35:05.339Z,12.48
2023-04-29T07:38:08.757Z,14.75
2023-04-29T07:41:12.192Z,25.20
2023-04-29T07:44:15.814Z,11.77
2023-04-29T07:47:19.943Z,11.05
2023-04-29T07:50:23.464Z,11.40
2023-04-29T07:53:26.857Z,11.57
2023-04-29T07:56:31.192Z,11.37
2023-04-29T07:59:34.634Z,14.47
2023-04-29T08:02:39.580Z,12.45
2023-04-29T08:05:43.618Z,12.27
2023-04-29T08:08:51.321Z,10.25
2023-04-29T08:11:55.575Z,12.43
2023-04-29T08:14:59.068Z,12.47
2023-04-29T08:18:02.501Z,12.82
2023-04-29T08:21:06.164Z,10.70
2023-04-29T08:24:09.535Z,13.13
2023-04-29T08:27:12.936Z,30.47
2023-04-29T08:30:16.467Z,23.90
2023-04-29T08:33:19.986Z,14.73
2023-04-29T08:36:23.491Z,10.70
2023-04-29T08:39:28.450Z,12.23
2023-04-29T08:42:36.949Z,11.67
2023-04-29T08:45:42.099Z,11.00
2023-04-29T08:48:46.010Z,10.93
2023-04-29T08:51:52.798Z,11.70
2023-04-29T08:54:57.040Z,10.27
2023-04-29T08:58:02.223Z,20.60
2023-04-29T09:01:09.831Z,11.33
2023-04-29T09:04:26.768Z,11.40
2023-04-29T09:07:32.056Z,10.57
2023-04-29T09:10:38.031Z,12.13
2023-04-29T09:13:41.516Z,11.00
2023-04-29T09:16:47.903Z,13.73
2023-04-29T09:19:51.448Z,10.68
2023-04-29T09:23:04.175Z,11.40
2023-04-29T09:26:08.042Z,10.43
2023-04-29T09:29:18.478Z,11.60
2023-04-29T09:32:22.181Z,9.63
2023-04-29T09:35:28.054Z,10.15
2023-04-29T09:38:31.473Z,11.23
2023-04-29T09:41:35.743Z,10.55
2023-04-29T09:44:42.836Z,11.07
2023-04-29T09:47:46.960Z,10.53
2023-04-29T09:51:04.727Z,11.23
2023-04-29T09:54:25.145Z,9.30
2023-04-29T09:57:44.858Z,10.07
2023-04-29T10:00:48.749Z,10.77
2023-04-29T10:03:54.603Z,11.13
2023-04-29T10:06:58.244Z,8.65
2023-04-29T10:10:03.010Z,9.15
2023-04-29T10:13:06.517Z,8.68
2023-04-29T10:16:33.256Z,7.67
2023-04-29T10:20:10.432Z,9.40
2023-04-29T10:23:15.507Z,7.90
2023-04-29T10:26:19.895Z,10.05
2023-04-29T10:29:25.600Z,7.72
2023-04-29T10:32:37.020Z,11.27
2023-04-29T10:35:49.499Z,10.20
2023-04-29T10:38:56.164Z,15.90
2023-04-29T10:41:59.922Z,14.18
2023-04-29T10:45:34.951Z,7.57
2023-04-29T10:48:38.430Z,8.97
2023-04-29T10:51:43.996Z,9.87
2023-04-29T10:55:03.927Z,9.27
2023-04-29T10:58:36.953Z,9.85
2023-04-29T11:01:53.625Z,7.45
2023-04-29T11:05:10.966Z,7.00
2023-04-29T11:08:26.592Z,27.37
2023-04-29T11:11:42.303Z,7.95
2023-04-29T11:14:51.525Z,8.70
2023-04-29T11:18:00.457Z,7.55
2023-04-29T11:21:06.804Z,7.80
2023-04-29T11:24:12.858Z,7.37
2023-04-29T11:27:17.991Z,7.80
2023-04-29T11:30:22.287Z,10.48
2023-04-29T11:33:30.240Z,10.90
2023-04-29T11:36:36.144Z,8.17
2023-04-29T11:39:39.712Z,9.00
2023-04-29T11:42:48.078Z,7.43
2023-04-29T11:45:52.686Z,7.53
2023-04-29T11:48:59.985Z,7.50
2023-04-29T11:52:03.786Z,9.97
2023-04-29T11:55:09.578Z,8.60
2023-04-29T11:58:14.540Z,9.70
2023-04-29T12:01:19.955Z,6.88
2023-04-29T12:04:23.780Z,6.78
2023-04-29T12:07:27.818Z,10.00
2023-04-29T12:10:33.004Z,8.13
2023-04-29T12:13:36.754Z,9.80
2023-04-29T12:16:40.546Z,9.98
2023-04-29T12:19:44.306Z,7.38
2023-04-29T12:22:47.962Z,10.10
2023-04-29T12:25:53.258Z,13.33
2023-04-29T12:28:59.347Z,29.45
2023-04-29T12:32:03.296Z,6.97
2023-04-29T12:35:15.653Z,8.35
2023-04-29T12:38:23.245Z,9.20
2023-04-29T12:41:40.525Z,9.53
2023-04-29T12:44:47.769Z,8.48
2023-04-29T12:47:52.151Z,7.75
2023-04-29T12:50:58.522Z,9.20
2023-04-29T12:54:07.476Z,5.70
2023-04-29T12:57:12.156Z,10.37
2023-04-29T13:00:16.839Z,8.80
2023-04-29T13:03:22.164Z,10.45
2023-04-29T13:06:25.952Z,8.63
2023-04-29T13:09:30.613Z,6.87
2023-04-29T13:12:34.386Z,6.40
2023-04-29T13:15:41.444Z,7.90
2023-04-29T13:18:53.697Z,8.73
2023-04-29T13:22:08.192Z,10.63
2023-04-29T13:25:12.441Z,9.13
2023-04-29T13:28:16.550Z,8.60
2023-04-29T13:31:19.984Z,8.43
2023-04-29T13:34:23.707Z,7.43
2023-04-29T13:37:27.110Z,9.38
2023-04-29T13:40:31.216Z,10.70
2023-04-29T13:43:38.395Z,7.50
2023-04-29T13:46:44.539Z,9.00
2023-04-29T13:53:24.729Z,7.75
2023-04-29T14:02:32.360Z,6.68
2023-04-29T14:05:37.654Z,7.80
2023-04-29T14:08:41.488Z,6.53
2023-04-29T14:11:45.060Z,6.77
2023-04-29T14:14:48.550Z,7.70
2023-04-29T14:17:52.425Z,6.10
2023-04-29T14:20:56.393Z,7.30
2023-04-29T14:24:03.796Z,9.35
2023-04-29T14:27:07.407Z,9.30
2023-04-29T14:30:11.718Z,7.10
2023-04-29T14:33:15.259Z,6.80
2023-04-29T14:36:18.623Z,7.15
2023-04-29T14:39:21.928Z,6.15
2023-04-29T14:42:25.497Z,7.87
2023-04-29T14:45:29.042Z,6.30
2023-04-29T14:48:33.310Z,7.22
2023-04-29T14:51:36.826Z,10.32
2023-04-29T14:54:40.237Z,7.60
2023-04-29T14:57:43.837Z,7.13
2023-04-29T15:00:47.602Z,7.10
2023-04-29T15:03:51.558Z,7.38
2023-04-29T15:06:55.248Z,7.57
2023-04-29T15:09:58.768Z,8.43
2023-04-29T15:13:02.466Z,8.73
2023-04-29T15:16:07.567Z,9.37
2023-04-29T15:19:11.358Z,9.02
2023-04-29T15:22:15.273Z,7.78
2023-04-29T15:25:18.842Z,8.93
2023-04-29T15:28:24.630Z,6.83
2023-04-29T15:31:29.329Z,11.17
2023-04-29T15:34:34.846Z,10.95
2023-04-29T15:37:38.462Z,7.43
2023-04-29T15:40:42.061Z,9.50
2023-04-29T15:43:45.703Z,16.10
2023-04-29T15:46:49.144Z,8.77
2023-04-29T15:49:52.920Z,7.70
2023-04-29T15:52:58.948Z,7.00
2023-04-29T15:56:02.566Z,7.85
2023-04-29T15:59:06.572Z,6.90
2023-04-29T16:02:11.780Z,8.00
2023-04-29T16:05:15.351Z,5.80
2023-04-29T16:08:18.866Z,6.50
2023-04-29T16:11:22.700Z,9.90
2023-04-29T16:14:26.594Z,10.40
2023-04-29T16:17:31.668Z,8.53
2023-04-29T16:20:36.454Z,7.43
2023-04-29T16:23:40.372Z,11.70
2023-04-29T16:26:46.018Z,11.43
2023-04-29T16:29:49.962Z,10.73
2023-04-29T16:32:53.813Z,9.30
2023-04-29T16:36:00.482Z,8.15
2023-04-29T16:39:04.854Z,9.13
2023-04-29T16:42:08.519Z,24.40
2023-04-29T16:45:13.398Z,13.40
2023-04-29T16:48:16.841Z,18.93
2023-04-29T16:51:23.249Z,17.90
2023-04-29T16:54:27.953Z,12.63
2023-04-29T16:57:32.093Z,9.80
2023-04-29T17:00:35.626Z,11.13
2023-04-29T17:03:39.440Z,9.57
2023-04-29T17:06:43.117Z,14.77
2023-04-29T17:09:49.721Z,22.27
2023-04-29T17:12:53.369Z,22.95
2023-04-29T17:15:57.039Z,23.37
2023-04-29T17:19:00.476Z,27.77
2023-04-29T17:22:04.021Z,31.40
2023-04-29T17:25:09.202Z,26.80
2023-04-29T17:28:12.775Z,17.83
2023-04-29T17:31:16.850Z,18.33
2023-04-29T17:34:24.011Z,23.07
2023-04-29T17:37:27.585Z,23.45
2023-04-29T17:40:31.552Z,20.38
2023-04-29T17:43:35.714Z,30.98
2023-04-29T17:46:40.221Z,29.60
2023-04-29T17:49:44.217Z,22.57
2023-04-29T17:52:47.851Z,35.67
2023-04-29T17:55:51.644Z,68.13
2023-04-29T17:58:55.222Z,27.05
2023-04-29T18:01:59.093Z,28.67
2023-04-29T18:05:03.804Z,19.00
2023-04-29T18:08:07.274Z,19.00
2023-04-29T18:11:12.716Z,31.23
2023-04-29T18:14:16.610Z,26.83
2023-04-29T18:17:20.611Z,43.97
2023-04-29T18:20:24.284Z,43.70
2023-04-29T18:23:28.033Z,22.70
2023-04-29T18:26:31.553Z,24.92
2023-04-29T18:29:35.523Z,26.15
2023-04-29T18:32:39.296Z,26.57
2023-04-29T18:35:43.375Z,22.40
2023-04-29T18:38:47.027Z,45.40
2023-04-29T18:41:50.573Z,27.70
2023-04-29T18:44:54.226Z,29.67
2023-04-29T18:47:57.849Z,39.00
2023-04-29T18:51:04.186Z,37.67
2023-04-29T18:54:08.015Z,34.25
2023-04-29T18:57:11.745Z,30.33
2023-04-29T19:00:16.339Z,32.17
2023-04-29T19:03:19.974Z,59.80
2023-04-29T19:06:23.927Z,45.33
2023-04-29T19:09:31.546Z,40.88
2023-04-29T19:12:35.530Z,29.58
2023-04-29T19:15:39.114Z,31.65
2023-04-29T19:18:42.472Z,30.70
2023-04-29T19:21:46.294Z,33.43
2023-04-29T19:24:49.683Z,41.20
2023-04-29T19:27:53.529Z,55.80
2023-04-29T19:30:57.349Z,43.42
2023-04-29T19:34:01.171Z,42.10
2023-04-29T19:37:04.935Z,30.60
2023-04-29T19:40:10.942Z,92.75
2023-04-29T19:43:14.645Z,86.05
2023-04-29T19:46:18.754Z,52.55
2023-04-29T19:49:22.499Z,51.60
2023-04-29T19:52:26.860Z,51.17
2023-04-29T19:55:31.069Z,52.78
2023-04-29T19:58:34.463Z,36.80
2023-04-29T20:01:38.301Z,40.97
2023-04-29T20:04:41.837Z,32.63
2023-04-29T20:07:45.488Z,31.93
2023-04-29T20:10:49.195Z,30.27
2023-04-29T20:13:53.154Z,32.03
2023-04-29T20:16:58.266Z,37.55
2023-04-29T20:20:03.763Z,27.30
2023-04-29T20:23:07.311Z,32.73
2023-04-29T20:26:11.077Z,27.77
2023-04-29T20:29:14.733Z,22.13
2023-04-29T20:32:18.220Z,22.73
2023-04-29T20:35:22.456Z,21.33
2023-04-29T20:38:26.922Z,18.37
2023-04-29T20:41:30.444Z,20.63
2023-04-29T20:44:34.140Z,24.65
2023-04-29T20:47:37.880Z,21.30
2023-04-29T20:50:41.860Z,20.00
2023-04-29T20:53:45.285Z,22.60
2023-04-29T20:56:48.680Z,19.73
2023-04-29T20:59:53.179Z,21.98
2023-04-29T21:02:56.758Z,27.13
2023-04-29T21:06:00.566Z,26.53
2023-04-29T21:09:04.202Z,23.77
2023-04-29T21:12:08.374Z,24.55
2023-04-29T21:15:12.132Z,30.52
2023-04-29T21:18:15.758Z,30.27
2023-04-29T21:21:19.138Z,25.50
2023-04-29T21:24:22.705Z,28.00
2023-04-29T21:27:26.413Z,33.25
2023-04-29T21:30:29.828Z,23.58
2023-04-29T21:33:33.297Z,22.60
2023-04-29T21:36:36.739Z,18.80
2023-04-29T21:39:40.403Z,22.03
2023-04-29T21:42:44.854Z,25.00
2023-04-29T21:45:48.249Z,21.48
2023-04-29T21:48:51.761Z,23.20
2023-04-29T21:51:56.111Z,21.23
2023-04-29T21:54:59.688Z,22.50
2023-04-29T21:58:03.356Z,24.70
2023-04-29T22:01:26.244Z,24.35
2023-04-29T22:04:29.878Z,22.30
2023-04-29T22:07:33.283Z,25.07
2023-04-29T22:10:40.164Z,25.30
2023-04-29T22:13:45.299Z,24.05
2023-04-29T22:16:48.771Z,22.15
2023-04-29T22:19:52.328Z,24.83
2023-04-29T22:22:56.339Z,20.13
2023-04-29T22:25:59.746Z,26.20
2023-04-29T22:29:03.241Z,27.30
2023-04-29T22:32:06.662Z,25.05
2023-04-29T22:35:10.352Z,20.23
2023-04-29T22:38:13.729Z,28.47
2023-04-29T22:41:17.115Z,23.27
2023-04-29T22:44:20.843Z,27.45
2023-04-29T22:47:24.192Z,21.02
2023-04-29T22:50:27.617Z,24.27
2023-04-29T22:53:31.142Z,22.57
2023-04-29T22:56:34.494Z,23.83
2023-04-29T22:59:37.844Z,22.05
2023-04-29T23:02:41.371Z,21.73
2023-04-29T23:05:44.711Z,22.85
2023-04-29T23:08:48.327Z,22.33
2023-04-29T23:11:51.607Z,23.37
2023-04-29T23:14:55.320Z,25.67
2023-04-29T23:17:59.077Z,23.58
2023-04-29T23:21:02.504Z,22.40
2023-04-29T23:24:06.267Z,25.13
2023-04-29T23:27:09.854Z,26.10
2023-04-29T23:30:13.395Z,27.25
2023-04-29T23:33:16.858Z,24.02
2023-04-29T23:36:20.256Z,22.58
2023-04-29T23:39:23.658Z,23.13
2023-04-29T23:42:27.831Z,27.23
2023-04-29T23:45:31.286Z,23.35
2023-04-29T23:48:34.628Z,23.42
2023-04-29T23:51:38.028Z,24.80
2023-04-29T23:54:41.488Z,22.13
2023-04-29T23:57:44.941Z,23.37
